sensor_id;sensor_type;location;lat;lon;timestamp;pressure;altitude;pressure_sealevel;temperature;humidity
4705;BME280;2366;51.332;6.610;2023-08-24T00:00:05;101620.44;;;23.64;60.01
4705;BME280;2366;51.332;6.610;2023-08-24T00:03:10;101613.19;;;23.64;59.96
4705;BME280;2366;51.332;6.610;2023-08-24T00:06:22;101611.47;;;23.63;60.17
4705;BME280;2366;51.332;6.610;2023-08-24T00:09:34;101613.94;;;23.56;60.31
4705;BME280;2366;51.332;6.610;2023-08-24T00:12:33;101615.13;;;23.54;60.47
4705;BME280;2366;51.332;6.610;2023-08-24T00:15:36;101612.75;;;23.51;60.68
4705;BME280;2366;51.332;6.610;2023-08-24T00:28:30;101603.47;;;23.35;61.61
4705;BME280;2366;51.332;6.610;2023-08-24T00:31:01;101592.44;;;23.29;61.64
4705;BME280;2366;51.332;6.610;2023-08-24T00:33:44;101588.88;;;23.28;61.53
4705;BME280;2366;51.332;6.610;2023-08-24T00:42:15;101580.22;;;23.25;61.94
4705;BME280;2366;51.332;6.610;2023-08-24T00:48:17;101582.31;;;23.13;62.10
4705;BME280;2366;51.332;6.610;2023-08-24T00:51:06;101575.66;;;23.07;62.24
4705;BME280;2366;51.332;6.610;2023-08-24T00:54:10;101572.31;;;23.05;62.55
4705;BME280;2366;51.332;6.610;2023-08-24T00:56:51;101570.25;;;23.07;62.34
4705;BME280;2366;51.332;6.610;2023-08-24T01:05:24;101575.72;;;22.97;63.18
4705;BME280;2366;51.332;6.610;2023-08-24T01:17:23;101574.44;;;22.84;63.37
4705;BME280;2366;51.332;6.610;2023-08-24T01:20:21;101578.25;;;22.81;63.53
4705;BME280;2366;51.332;6.610;2023-08-24T01:26:23;101589.41;;;22.78;63.82
4705;BME280;2366;51.332;6.610;2023-08-24T01:32:29;101579.97;;;22.82;63.94
4705;BME280;2366;51.332;6.610;2023-08-24T01:35:11;101575.75;;;22.80;64.13
4705;BME280;2366;51.332;6.610;2023-08-24T01:38:07;101561.06;;;22.82;64.01
4705;BME280;2366;51.332;6.610;2023-08-24T01:47:41;101554.50;;;22.85;63.79
4705;BME280;2366;51.332;6.610;2023-08-24T01:53:11;101558.97;;;22.76;64.03
4705;BME280;2366;51.332;6.610;2023-08-24T01:59:57;101545.59;;;22.74;64.46
4705;BME280;2366;51.332;6.610;2023-08-24T02:09:36;101552.00;;;22.55;64.44
4705;BME280;2366;51.332;6.610;2023-08-24T02:12:25;101544.91;;;22.54;64.81
4705;BME280;2366;51.332;6.610;2023-08-24T02:14:51;101542.88;;;22.56;64.80
4705;BME280;2366;51.332;6.610;2023-08-24T02:17:18;101534.66;;;22.58;64.57
4705;BME280;2366;51.332;6.610;2023-08-24T02:19:43;101539.59;;;22.63;64.71
4705;BME280;2366;51.332;6.610;2023-08-24T02:22:09;101532.31;;;22.63;64.76
4705;BME280;2366;51.332;6.610;2023-08-24T02:24:34;101537.88;;;22.62;64.60
4705;BME280;2366;51.332;6.610;2023-08-24T02:27:00;101543.91;;;22.55;64.80
4705;BME280;2366;51.332;6.610;2023-08-24T02:29:25;101534.41;;;22.51;64.47
4705;BME280;2366;51.332;6.610;2023-08-24T02:31:51;101544.66;;;22.48;64.93
4705;BME280;2366;51.332;6.610;2023-08-24T02:34:17;101545.81;;;22.45;64.87
4705;BME280;2366;51.332;6.610;2023-08-24T02:36:42;101548.66;;;22.44;65.07
4705;BME280;2366;51.332;6.610;2023-08-24T02:39:07;101538.69;;;22.44;65.23
4705;BME280;2366;51.332;6.610;2023-08-24T02:41:34;101545.03;;;22.53;65.37
4705;BME280;2366;51.332;6.610;2023-08-24T02:44:00;101546.63;;;22.55;65.33
4705;BME280;2366;51.332;6.610;2023-08-24T02:46:26;101551.13;;;22.55;65.31
4705;BME280;2366;51.332;6.610;2023-08-24T02:48:51;101547.47;;;22.56;65.56
4705;BME280;2366;51.332;6.610;2023-08-24T02:51:16;101550.00;;;22.58;65.70
4705;BME280;2366;51.332;6.610;2023-08-24T02:53:42;101547.84;;;22.61;65.32
4705;BME280;2366;51.332;6.610;2023-08-24T02:56:07;101532.31;;;22.63;65.42
4705;BME280;2366;51.332;6.610;2023-08-24T02:58:33;101524.44;;;22.70;65.31
4705;BME280;2366;51.332;6.610;2023-08-24T03:00:58;101520.75;;;22.71;64.87
4705;BME280;2366;51.332;6.610;2023-08-24T03:03:24;101525.84;;;22.74;65.28
4705;BME280;2366;51.332;6.610;2023-08-24T03:05:57;101523.00;;;22.75;64.93
4705;BME280;2366;51.332;6.610;2023-08-24T03:08:23;101527.22;;;22.78;64.99
4705;BME280;2366;51.332;6.610;2023-08-24T03:10:49;101529.00;;;22.87;64.76
4705;BME280;2366;51.332;6.610;2023-08-24T03:13:14;101524.00;;;22.92;64.77
4705;BME280;2366;51.332;6.610;2023-08-24T03:15:40;101528.75;;;22.98;64.44
4705;BME280;2366;51.332;6.610;2023-08-24T03:18:05;101533.19;;;23.00;64.25
4705;BME280;2366;51.332;6.610;2023-08-24T03:20:31;101536.59;;;23.02;64.04
4705;BME280;2366;51.332;6.610;2023-08-24T03:22:56;101536.00;;;23.08;64.06
4705;BME280;2366;51.332;6.610;2023-08-24T03:25:22;101544.78;;;23.10;64.02
4705;BME280;2366;51.332;6.610;2023-08-24T03:27:48;101545.50;;;23.12;63.85
4705;BME280;2366;51.332;6.610;2023-08-24T03:30:14;101551.88;;;23.11;63.87
4705;BME280;2366;51.332;6.610;2023-08-24T03:32:40;101557.28;;;23.11;63.76
4705;BME280;2366;51.332;6.610;2023-08-24T03:35:06;101565.41;;;23.11;64.20
4705;BME280;2366;51.332;6.610;2023-08-24T03:37:32;101566.09;;;23.13;63.95
4705;BME280;2366;51.332;6.610;2023-08-24T03:39:57;101567.63;;;23.15;64.28
4705;BME280;2366;51.332;6.610;2023-08-24T03:42:23;101571.19;;;23.16;64.33
4705;BME280;2366;51.332;6.610;2023-08-24T03:44:48;101572.56;;;23.20;64.18
4705;BME280;2366;51.332;6.610;2023-08-24T03:47:13;101563.84;;;23.26;64.16
4705;BME280;2366;51.332;6.610;2023-08-24T03:49:42;101554.13;;;23.33;64.19
4705;BME280;2366;51.332;6.610;2023-08-24T03:52:08;101541.78;;;23.39;64.00
4705;BME280;2366;51.332;6.610;2023-08-24T03:54:34;101527.28;;;23.40;63.73
4705;BME280;2366;51.332;6.610;2023-08-24T03:56:59;101525.41;;;23.41;63.42
4705;BME280;2366;51.332;6.610;2023-08-24T03:59:24;101523.56;;;23.41;63.33
4705;BME280;2366;51.332;6.610;2023-08-24T04:01:50;101524.03;;;23.36;63.02
4705;BME280;2366;51.332;6.610;2023-08-24T04:04:15;101519.94;;;23.32;62.85
4705;BME280;2366;51.332;6.610;2023-08-24T04:06:41;101514.88;;;23.29;63.11
4705;BME280;2366;51.332;6.610;2023-08-24T04:09:07;101503.13;;;23.21;63.35
4705;BME280;2366;51.332;6.610;2023-08-24T04:11:32;101498.59;;;23.03;63.54
4705;BME280;2366;51.332;6.610;2023-08-24T04:13:57;101498.28;;;22.88;63.94
4705;BME280;2366;51.332;6.610;2023-08-24T04:16:23;101494.09;;;22.76;64.33
4705;BME280;2366;51.332;6.610;2023-08-24T04:18:48;101502.31;;;22.66;64.75
4705;BME280;2366;51.332;6.610;2023-08-24T04:21:14;101498.41;;;22.51;64.87
4705;BME280;2366;51.332;6.610;2023-08-24T04:23:39;101495.34;;;22.46;65.39
4705;BME280;2366;51.332;6.610;2023-08-24T04:26:13;101484.16;;;22.41;65.81
4705;BME280;2366;51.332;6.610;2023-08-24T04:28:38;101457.50;;;22.28;66.33
4705;BME280;2366;51.332;6.610;2023-08-24T04:31:04;101445.72;;;22.01;67.24
4705;BME280;2366;51.332;6.610;2023-08-24T04:33:29;101450.91;;;21.85;67.85
4705;BME280;2366;51.332;6.610;2023-08-24T04:35:54;101469.09;;;21.83;68.62
4705;BME280;2366;51.332;6.610;2023-08-24T04:38:20;101461.00;;;21.83;69.10
4705;BME280;2366;51.332;6.610;2023-08-24T04:40:52;101454.59;;;21.84;69.34
4705;BME280;2366;51.332;6.610;2023-08-24T04:43:18;101435.81;;;21.92;69.98
4705;BME280;2366;51.332;6.610;2023-08-24T04:45:52;101429.19;;;21.86;70.16
4705;BME280;2366;51.332;6.610;2023-08-24T04:48:22;101427.34;;;21.87;70.55
4705;BME280;2366;51.332;6.610;2023-08-24T04:50:47;101432.41;;;21.90;69.66
4705;BME280;2366;51.332;6.610;2023-08-24T04:53:17;101431.56;;;21.89;70.29
4705;BME280;2366;51.332;6.610;2023-08-24T04:55:43;101428.31;;;21.86;69.76
4705;BME280;2366;51.332;6.610;2023-08-24T04:58:10;101417.63;;;21.94;71.12
4705;BME280;2366;51.332;6.610;2023-08-24T05:00:38;101406.38;;;21.99;70.95
4705;BME280;2366;51.332;6.610;2023-08-24T05:03:04;101395.81;;;22.05;69.81
4705;BME280;2366;51.332;6.610;2023-08-24T05:05:30;101384.72;;;22.08;70.55
4705;BME280;2366;51.332;6.610;2023-08-24T05:07:57;101388.81;;;22.12;70.69
4705;BME280;2366;51.332;6.610;2023-08-24T05:10:22;101387.19;;;22.20;70.66
4705;BME280;2366;51.332;6.610;2023-08-24T05:12:48;101396.38;;;22.27;70.71
4705;BME280;2366;51.332;6.610;2023-08-24T05:15:13;101403.03;;;22.32;70.79
4705;BME280;2366;51.332;6.610;2023-08-24T05:17:39;101410.13;;;22.33;70.47
4705;BME280;2366;51.332;6.610;2023-08-24T05:20:06;101415.47;;;22.43;70.06
4705;BME280;2366;51.332;6.610;2023-08-24T05:22:31;101419.56;;;22.47;70.47
4705;BME280;2366;51.332;6.610;2023-08-24T05:24:57;101414.84;;;22.49;70.32
4705;BME280;2366;51.332;6.610;2023-08-24T05:27:22;101415.53;;;22.51;70.40
4705;BME280;2366;51.332;6.610;2023-08-24T05:29:47;101410.50;;;22.56;69.85
4705;BME280;2366;51.332;6.610;2023-08-24T05:32:13;101415.53;;;22.51;70.13
4705;BME280;2366;51.332;6.610;2023-08-24T05:34:38;101408.84;;;22.55;70.14
4705;BME280;2366;51.332;6.610;2023-08-24T05:37:03;101413.44;;;22.63;70.41
4705;BME280;2366;51.332;6.610;2023-08-24T05:39:29;101409.75;;;22.64;70.20
4705;BME280;2366;51.332;6.610;2023-08-24T05:41:55;101408.94;;;22.72;70.56
4705;BME280;2366;51.332;6.610;2023-08-24T05:44:21;101413.38;;;22.73;70.05
4705;BME280;2366;51.332;6.610;2023-08-24T05:46:46;101407.09;;;22.72;69.79
4705;BME280;2366;51.332;6.610;2023-08-24T05:49:12;101393.44;;;22.74;69.84
4705;BME280;2366;51.332;6.610;2023-08-24T05:51:37;101391.75;;;22.73;68.87
4705;BME280;2366;51.332;6.610;2023-08-24T05:54:03;101386.56;;;22.80;69.24
4705;BME280;2366;51.332;6.610;2023-08-24T05:56:28;101380.72;;;22.92;68.83
4705;BME280;2366;51.332;6.610;2023-08-24T05:58:54;101376.69;;;22.96;67.93
4705;BME280;2366;51.332;6.610;2023-08-24T06:01:20;101381.34;;;23.04;68.44
4705;BME280;2366;51.332;6.610;2023-08-24T06:03:46;101374.81;;;23.15;68.19
4705;BME280;2366;51.332;6.610;2023-08-24T06:06:11;101372.50;;;23.28;68.09
4705;BME280;2366;51.332;6.610;2023-08-24T06:08:37;101370.72;;;23.45;67.82
4705;BME280;2366;51.332;6.610;2023-08-24T06:11:02;101369.06;;;23.52;67.03
4705;BME280;2366;51.332;6.610;2023-08-24T06:13:28;101374.03;;;23.73;66.59
4705;BME280;2366;51.332;6.610;2023-08-24T06:15:53;101379.03;;;23.86;64.29
4705;BME280;2366;51.332;6.610;2023-08-24T06:18:22;101378.06;;;24.20;64.94
4705;BME280;2366;51.332;6.610;2023-08-24T06:20:47;101383.84;;;24.83;64.98
4705;BME280;2366;51.332;6.610;2023-08-24T06:23:16;101377.28;;;25.41;60.57
4705;BME280;2366;51.332;6.610;2023-08-24T06:25:41;101376.66;;;26.71;58.17
4705;BME280;2366;51.332;6.610;2023-08-24T06:28:07;101378.81;;;27.94;54.67
4705;BME280;2366;51.332;6.610;2023-08-24T06:30:37;101377.06;;;28.30;51.18
4705;BME280;2366;51.332;6.610;2023-08-24T06:33:04;101379.66;;;28.59;50.58
4705;BME280;2366;51.332;6.610;2023-08-24T06:35:30;101372.63;;;29.28;49.38
4705;BME280;2366;51.332;6.610;2023-08-24T06:37:55;101372.16;;;29.66;47.71
4705;BME280;2366;51.332;6.610;2023-08-24T06:40:20;101364.28;;;29.91;45.96
4705;BME280;2366;51.332;6.610;2023-08-24T06:42:46;101369.34;;;30.01;45.12
4705;BME280;2366;51.332;6.610;2023-08-24T06:45:11;101364.13;;;30.19;44.95
4705;BME280;2366;51.332;6.610;2023-08-24T06:47:37;101369.00;;;30.44;43.96
4705;BME280;2366;51.332;6.610;2023-08-24T06:50:03;101361.88;;;30.43;43.54
4705;BME280;2366;51.332;6.610;2023-08-24T06:52:28;101366.47;;;30.62;44.02
4705;BME280;2366;51.332;6.610;2023-08-24T06:54:53;101359.09;;;30.69;43.67
4705;BME280;2366;51.332;6.610;2023-08-24T06:57:21;101357.59;;;31.07;42.56
4705;BME280;2366;51.332;6.610;2023-08-24T06:59:46;101349.97;;;31.16;41.80
4705;BME280;2366;51.332;6.610;2023-08-24T07:02:12;101349.97;;;31.22;42.27
4705;BME280;2366;51.332;6.610;2023-08-24T07:04:38;101348.88;;;31.37;42.25
4705;BME280;2366;51.332;6.610;2023-08-24T07:07:05;101358.66;;;31.71;41.79
4705;BME280;2366;51.332;6.610;2023-08-24T07:09:31;101352.69;;;31.81;40.73
4705;BME280;2366;51.332;6.610;2023-08-24T07:11:56;101356.06;;;31.76;39.96
4705;BME280;2366;51.332;6.610;2023-08-24T07:14:22;101360.22;;;31.85;40.22
4705;BME280;2366;51.332;6.610;2023-08-24T07:16:47;101347.16;;;31.36;40.97
4705;BME280;2366;51.332;6.610;2023-08-24T07:19:13;101338.28;;;31.54;40.46
4705;BME280;2366;51.332;6.610;2023-08-24T07:21:38;101335.66;;;31.72;41.06
4705;BME280;2366;51.332;6.610;2023-08-24T07:24:04;101336.28;;;31.74;41.18
4705;BME280;2366;51.332;6.610;2023-08-24T07:26:29;101326.09;;;31.81;40.49
4705;BME280;2366;51.332;6.610;2023-08-24T07:28:55;101322.81;;;31.66;40.58
4705;BME280;2366;51.332;6.610;2023-08-24T07:31:21;101312.84;;;31.33;41.13
4705;BME280;2366;51.332;6.610;2023-08-24T07:33:48;101315.19;;;31.23;40.78
4705;BME280;2366;51.332;6.610;2023-08-24T07:36:13;101310.63;;;31.17;40.91
4705;BME280;2366;51.332;6.610;2023-08-24T07:38:39;101304.00;;;31.31;41.99
4705;BME280;2366;51.332;6.610;2023-08-24T07:41:04;101306.72;;;31.44;41.47
4705;BME280;2366;51.332;6.610;2023-08-24T07:43:32;101299.09;;;31.53;40.92
4705;BME280;2366;51.332;6.610;2023-08-24T07:45:59;101313.97;;;31.19;41.88
4705;BME280;2366;51.332;6.610;2023-08-24T07:48:25;101320.19;;;31.39;42.23
4705;BME280;2366;51.332;6.610;2023-08-24T07:50:53;101329.88;;;31.42;40.91
4705;BME280;2366;51.332;6.610;2023-08-24T07:53:18;101336.53;;;31.66;41.48
4705;BME280;2366;51.332;6.610;2023-08-24T07:55:44;101335.66;;;32.10;40.28
4705;BME280;2366;51.332;6.610;2023-08-24T07:58:10;101345.44;;;32.00;40.12
4705;BME280;2366;51.332;6.610;2023-08-24T08:00:35;101346.53;;;32.24;39.67
4705;BME280;2366;51.332;6.610;2023-08-24T08:03:01;101355.72;;;32.61;40.47
4705;BME280;2366;51.332;6.610;2023-08-24T08:05:26;101351.75;;;32.57;39.40
4705;BME280;2366;51.332;6.610;2023-08-24T08:07:52;101341.88;;;32.74;40.25
4705;BME280;2366;51.332;6.610;2023-08-24T08:10:17;101336.72;;;32.85;38.59
4705;BME280;2366;51.332;6.610;2023-08-24T08:12:45;101321.31;;;33.02;38.56
4705;BME280;2366;51.332;6.610;2023-08-24T08:15:10;101304.09;;;33.32;37.81
4705;BME280;2366;51.332;6.610;2023-08-24T08:17:36;101308.38;;;33.28;37.45
4705;BME280;2366;51.332;6.610;2023-08-24T08:20:01;101314.63;;;33.17;38.20
4705;BME280;2366;51.332;6.610;2023-08-24T08:22:27;101307.22;;;33.17;37.16
4705;BME280;2366;51.332;6.610;2023-08-24T08:24:53;101306.13;;;33.00;38.12
4705;BME280;2366;51.332;6.610;2023-08-24T08:27:22;101300.03;;;32.98;37.34
4705;BME280;2366;51.332;6.610;2023-08-24T08:29:49;101297.88;;;32.81;38.64
4705;BME280;2366;51.332;6.610;2023-08-24T08:32:15;101298.19;;;32.54;38.44
4705;BME280;2366;51.332;6.610;2023-08-24T08:34:40;101288.19;;;32.35;37.75
4705;BME280;2366;51.332;6.610;2023-08-24T08:37:05;101293.66;;;32.17;38.78
4705;BME280;2366;51.332;6.610;2023-08-24T08:39:32;101295.38;;;32.11;39.16
4705;BME280;2366;51.332;6.610;2023-08-24T08:41:57;101293.75;;;32.28;39.45
4705;BME280;2366;51.332;6.610;2023-08-24T08:44:23;101293.00;;;32.40;38.74
4705;BME280;2366;51.332;6.610;2023-08-24T08:46:50;101295.44;;;32.29;38.82
4705;BME280;2366;51.332;6.610;2023-08-24T08:49:16;101290.56;;;32.57;38.51
4705;BME280;2366;51.332;6.610;2023-08-24T08:51:42;101290.06;;;32.66;38.04
4705;BME280;2366;51.332;6.610;2023-08-24T08:54:08;101292.78;;;32.41;38.42
4705;BME280;2366;51.332;6.610;2023-08-24T08:56:34;101284.09;;;32.69;38.77
4705;BME280;2366;51.332;6.610;2023-08-24T08:59:00;101271.91;;;33.02;38.66
4705;BME280;2366;51.332;6.610;2023-08-24T09:01:27;101267.03;;;33.23;36.99
4705;BME280;2366;51.332;6.610;2023-08-24T09:03:53;101261.06;;;33.26;36.77
4705;BME280;2366;51.332;6.610;2023-08-24T09:06:20;101252.22;;;33.24;37.83
4705;BME280;2366;51.332;6.610;2023-08-24T09:08:47;101243.09;;;33.11;37.65
4705;BME280;2366;51.332;6.610;2023-08-24T09:11:12;101239.75;;;33.40;37.05
4705;BME280;2366;51.332;6.610;2023-08-24T09:13:38;101228.31;;;33.54;36.60
4705;BME280;2366;51.332;6.610;2023-08-24T09:16:05;101210.41;;;33.52;36.05
4705;BME280;2366;51.332;6.610;2023-08-24T09:18:37;101204.38;;;33.31;36.14
4705;BME280;2366;51.332;6.610;2023-08-24T09:21:10;101209.38;;;33.04;36.62
4705;BME280;2366;51.332;6.610;2023-08-24T09:23:37;101199.63;;;33.39;36.28
4705;BME280;2366;51.332;6.610;2023-08-24T09:26:04;101190.88;;;33.60;35.86
4705;BME280;2366;51.332;6.610;2023-08-24T09:28:30;101182.47;;;33.55;35.59
4705;BME280;2366;51.332;6.610;2023-08-24T09:30:55;101171.94;;;33.52;35.56
4705;BME280;2366;51.332;6.610;2023-08-24T09:33:21;101164.84;;;33.32;36.47
4705;BME280;2366;51.332;6.610;2023-08-24T09:35:53;101157.94;;;33.42;37.64
4705;BME280;2366;51.332;6.610;2023-08-24T09:38:20;101143.09;;;33.31;36.67
4705;BME280;2366;51.332;6.610;2023-08-24T09:40:46;101136.78;;;33.30;36.58
4705;BME280;2366;51.332;6.610;2023-08-24T09:43:13;101145.25;;;33.29;36.59
4705;BME280;2366;51.332;6.610;2023-08-24T09:45:47;101156.66;;;33.56;36.78
4705;BME280;2366;51.332;6.610;2023-08-24T09:48:14;101154.16;;;33.54;35.65
4705;BME280;2366;51.332;6.610;2023-08-24T09:50:39;101158.03;;;33.23;35.95
4705;BME280;2366;51.332;6.610;2023-08-24T09:53:07;101156.59;;;33.02;36.99
4705;BME280;2366;51.332;6.610;2023-08-24T09:55:36;101169.09;;;32.98;36.91
4705;BME280;2366;51.332;6.610;2023-08-24T09:58:03;101174.28;;;33.25;36.24
4705;BME280;2366;51.332;6.610;2023-08-24T10:00:31;101181.72;;;33.36;36.44
4705;BME280;2366;51.332;6.610;2023-08-24T10:02:57;101189.75;;;33.49;36.24
4705;BME280;2366;51.332;6.610;2023-08-24T10:05:24;101192.22;;;33.39;36.20
4705;BME280;2366;51.332;6.610;2023-08-24T10:07:53;101192.00;;;33.41;36.97
4705;BME280;2366;51.332;6.610;2023-08-24T10:10:24;101193.03;;;33.28;36.53
4705;BME280;2366;51.332;6.610;2023-08-24T10:12:51;101195.22;;;33.07;37.10
4705;BME280;2366;51.332;6.610;2023-08-24T10:15:18;101187.19;;;33.06;36.71
4705;BME280;2366;51.332;6.610;2023-08-24T10:17:45;101189.75;;;33.19;35.97
4705;BME280;2366;51.332;6.610;2023-08-24T10:20:11;101195.03;;;33.21;36.03
4705;BME280;2366;51.332;6.610;2023-08-24T10:22:37;101194.94;;;33.27;36.11
4705;BME280;2366;51.332;6.610;2023-08-24T10:25:06;101202.47;;;33.32;36.38
4705;BME280;2366;51.332;6.610;2023-08-24T10:27:32;101206.88;;;33.33;36.09
4705;BME280;2366;51.332;6.610;2023-08-24T10:29:58;101207.88;;;33.39;36.20
4705;BME280;2366;51.332;6.610;2023-08-24T10:32:26;101201.03;;;33.60;35.66
4705;BME280;2366;51.332;6.610;2023-08-24T10:34:52;101217.03;;;33.63;36.11
4705;BME280;2366;51.332;6.610;2023-08-24T10:37:25;101211.91;;;33.66;36.74
4705;BME280;2366;51.332;6.610;2023-08-24T10:39:50;101219.91;;;33.68;37.24
4705;BME280;2366;51.332;6.610;2023-08-24T10:42:16;101219.06;;;33.67;36.50
4705;BME280;2366;51.332;6.610;2023-08-24T10:44:45;101215.69;;;33.53;37.26
4705;BME280;2366;51.332;6.610;2023-08-24T10:47:18;101206.44;;;33.36;36.61
4705;BME280;2366;51.332;6.610;2023-08-24T10:52:23;101198.88;;;33.62;37.23
4705;BME280;2366;51.332;6.610;2023-08-24T10:54:51;101194.75;;;33.52;37.11
4705;BME280;2366;51.332;6.610;2023-08-24T10:57:25;101193.47;;;33.55;37.16
4705;BME280;2366;51.332;6.610;2023-08-24T11:00:07;101185.56;;;33.59;36.83
4705;BME280;2366;51.332;6.610;2023-08-24T11:02:49;101180.97;;;33.71;37.16
4705;BME280;2366;51.332;6.610;2023-08-24T11:05:23;101178.25;;;33.94;35.98
4705;BME280;2366;51.332;6.610;2023-08-24T11:07:58;101169.97;;;33.83;35.86
4705;BME280;2366;51.332;6.610;2023-08-24T11:10:26;101169.28;;;33.64;37.04
4705;BME280;2366;51.332;6.610;2023-08-24T11:13:05;101170.75;;;33.48;37.75
4705;BME280;2366;51.332;6.610;2023-08-24T11:15:47;101168.59;;;33.50;37.28
4705;BME280;2366;51.332;6.610;2023-08-24T11:18:20;101163.41;;;33.60;37.51
4705;BME280;2366;51.332;6.610;2023-08-24T11:20:53;101178.16;;;33.47;38.35
4705;BME280;2366;51.332;6.610;2023-08-24T11:23:20;101187.81;;;33.38;38.92
4705;BME280;2366;51.332;6.610;2023-08-24T11:25:47;101193.84;;;33.28;39.13
4705;BME280;2366;51.332;6.610;2023-08-24T11:28:18;101205.72;;;32.92;39.08
4705;BME280;2366;51.332;6.610;2023-08-24T11:30:44;101219.00;;;32.77;38.97
4705;BME280;2366;51.332;6.610;2023-08-24T11:33:11;101217.19;;;32.70;39.82
4705;BME280;2366;51.332;6.610;2023-08-24T11:35:36;101214.72;;;32.81;39.34
4705;BME280;2366;51.332;6.610;2023-08-24T11:38:02;101202.84;;;32.87;39.09
4705;BME280;2366;51.332;6.610;2023-08-24T11:40:28;101196.81;;;32.78;39.29
4705;BME280;2366;51.332;6.610;2023-08-24T11:42:54;101200.69;;;32.89;39.53
4705;BME280;2366;51.332;6.610;2023-08-24T11:45:20;101186.63;;;33.15;39.65
4705;BME280;2366;51.332;6.610;2023-08-24T11:47:47;101199.00;;;33.25;38.92
4705;BME280;2366;51.332;6.610;2023-08-24T11:50:13;101200.19;;;33.29;39.30
4705;BME280;2366;51.332;6.610;2023-08-24T11:52:39;101191.28;;;33.15;39.11
4705;BME280;2366;51.332;6.610;2023-08-24T11:55:05;101193.66;;;33.11;39.37
4705;BME280;2366;51.332;6.610;2023-08-24T11:57:35;101208.00;;;33.44;38.91
4705;BME280;2366;51.332;6.610;2023-08-24T12:00:03;101195.34;;;33.54;38.15
4705;BME280;2366;51.332;6.610;2023-08-24T12:02:30;101197.72;;;33.39;39.17
4705;BME280;2366;51.332;6.610;2023-08-24T12:04:55;101192.00;;;33.52;39.29
4705;BME280;2366;51.332;6.610;2023-08-24T12:07:21;101177.28;;;33.35;38.82
4705;BME280;2366;51.332;6.610;2023-08-24T12:09:47;101172.06;;;33.15;39.73
4705;BME280;2366;51.332;6.610;2023-08-24T12:12:16;101156.16;;;33.05;40.21
4705;BME280;2366;51.332;6.610;2023-08-24T12:14:43;101155.69;;;32.90;41.12
4705;BME280;2366;51.332;6.610;2023-08-24T12:17:09;101136.41;;;32.66;41.28
4705;BME280;2366;51.332;6.610;2023-08-24T12:19:35;101123.75;;;32.47;41.88
4705;BME280;2366;51.332;6.610;2023-08-24T12:22:00;101109.09;;;32.16;43.12
4705;BME280;2366;51.332;6.610;2023-08-24T12:24:26;101107.69;;;31.88;45.32
4705;BME280;2366;51.332;6.610;2023-08-24T12:26:56;101106.00;;;31.37;48.04
4705;BME280;2366;51.332;6.610;2023-08-24T12:29:22;101100.19;;;30.95;50.08
4705;BME280;2366;51.332;6.610;2023-08-24T12:31:48;101093.47;;;30.39;52.80
4705;BME280;2366;51.332;6.610;2023-08-24T12:34:14;101089.94;;;30.12;53.24
4705;BME280;2366;51.332;6.610;2023-08-24T12:36:42;101090.78;;;30.19;52.37
4705;BME280;2366;51.332;6.610;2023-08-24T12:39:11;101076.31;;;29.99;53.67
4705;BME280;2366;51.332;6.610;2023-08-24T12:41:38;101084.28;;;30.14;53.70
4705;BME280;2366;51.332;6.610;2023-08-24T12:44:04;101070.19;;;30.30;53.40
4705;BME280;2366;51.332;6.610;2023-08-24T12:46:36;101076.84;;;30.27;54.16
4705;BME280;2366;51.332;6.610;2023-08-24T12:49:02;101074.31;;;30.46;54.29
4705;BME280;2366;51.332;6.610;2023-08-24T12:51:28;101088.34;;;30.63;52.83
4705;BME280;2366;51.332;6.610;2023-08-24T12:53:53;101070.19;;;30.68;53.87
4705;BME280;2366;51.332;6.610;2023-08-24T12:56:19;101065.13;;;30.72;53.37
4705;BME280;2366;51.332;6.610;2023-08-24T12:58:44;101069.25;;;30.88;53.42
4705;BME280;2366;51.332;6.610;2023-08-24T13:01:11;101059.03;;;31.08;52.33
4705;BME280;2366;51.332;6.610;2023-08-24T13:03:37;101057.28;;;31.21;51.99
4705;BME280;2366;51.332;6.610;2023-08-24T13:06:05;101060.13;;;31.32;51.87
4705;BME280;2366;51.332;6.610;2023-08-24T13:08:30;101070.84;;;31.34;51.46
4705;BME280;2366;51.332;6.610;2023-08-24T13:10:56;101073.84;;;31.58;51.60
4705;BME280;2366;51.332;6.610;2023-08-24T13:13:21;101071.53;;;31.80;50.57
4705;BME280;2366;51.332;6.610;2023-08-24T13:15:50;101056.81;;;31.74;50.59
4705;BME280;2366;51.332;6.610;2023-08-24T13:18:16;101061.69;;;31.72;50.64
4705;BME280;2366;51.332;6.610;2023-08-24T13:20:42;101064.28;;;31.67;50.80
4705;BME280;2366;51.332;6.610;2023-08-24T13:23:07;101063.19;;;31.68;51.01
4705;BME280;2366;51.332;6.610;2023-08-24T13:25:33;101077.06;;;31.73;50.61
4705;BME280;2366;51.332;6.610;2023-08-24T13:27:58;101069.94;;;31.90;50.11
4705;BME280;2366;51.332;6.610;2023-08-24T13:30:24;101076.81;;;32.00;49.93
4705;BME280;2366;51.332;6.610;2023-08-24T13:32:49;101077.69;;;31.93;49.14
4705;BME280;2366;51.332;6.610;2023-08-24T13:35:15;101068.84;;;31.91;48.96
4705;BME280;2366;51.332;6.610;2023-08-24T13:37:40;101061.81;;;31.77;49.58
4705;BME280;2366;51.332;6.610;2023-08-24T13:40:06;101076.31;;;31.84;49.69
4705;BME280;2366;51.332;6.610;2023-08-24T13:42:33;101074.41;;;31.85;49.51
4705;BME280;2366;51.332;6.610;2023-08-24T13:44:58;101074.41;;;31.85;49.33
4705;BME280;2366;51.332;6.610;2023-08-24T13:47:24;101085.38;;;31.85;49.67
4705;BME280;2366;51.332;6.610;2023-08-24T13:49:49;101077.53;;;31.88;48.94
4705;BME280;2366;51.332;6.610;2023-08-24T13:52:15;101078.94;;;31.72;50.16
4705;BME280;2366;51.332;6.610;2023-08-24T13:54:41;101067.28;;;31.59;50.28
4705;BME280;2366;51.332;6.610;2023-08-24T13:57:07;101068.47;;;31.44;50.52
4705;BME280;2366;51.332;6.610;2023-08-24T13:59:32;101069.25;;;31.51;50.59
4705;BME280;2366;51.332;6.610;2023-08-24T14:01:57;101072.91;;;31.45;51.12
4705;BME280;2366;51.332;6.610;2023-08-24T14:04:23;101070.59;;;31.42;50.96
4705;BME280;2366;51.332;6.610;2023-08-24T14:06:48;101059.19;;;31.14;50.70
4705;BME280;2366;51.332;6.610;2023-08-24T14:09:14;101064.09;;;31.05;51.06
4705;BME280;2366;51.332;6.610;2023-08-24T14:11:39;101068.31;;;31.07;51.05
4705;BME280;2366;51.332;6.610;2023-08-24T14:14:05;101060.53;;;30.66;51.44
4705;BME280;2366;51.332;6.610;2023-08-24T14:16:30;101059.75;;;30.59;52.05
4705;BME280;2366;51.332;6.610;2023-08-24T14:18:55;101052.41;;;30.53;52.87